Terminal Aerodrome Forecast
Issued by NWS

Home | Current Version | Previous Version | Text Only | Print | Product List | Glossary Off
Versions: 1 2 3 4 5 6 7 8 9 10 11 12 13 14 15 16 17 18 19 20 21 22 23

000
FTUS43 KABR 151100
TAFMBG
TAF
KMBG 151140Z 1512/1612 35019G27KT P6SM -FZDZ OVC007
      TEMPO 1512/1516 OVC010
     FM151600 34020G30KT P6SM OVC015
     FM160000 34017KT P6SM OVC015=

USA.gov is the U.S. government's official web portal to all federal, state and local government web resources and services.